createdAt,value
2022-12-31T00:00:30.607Z,101125.00
2022-12-31T00:03:46.571Z,101140.50
2022-12-31T00:06:55.260Z,101127.06
2022-12-31T00:10:11.615Z,101130.78
2022-12-31T00:13:26.554Z,101130.12
2022-12-31T00:16:49.671Z,101136.00
2022-12-31T00:20:04.597Z,101128.19
2022-12-31T00:23:20.605Z,101136.00
2022-12-31T00:26:37.865Z,101140.12
2022-12-31T00:29:52.590Z,101146.84
2022-12-31T00:33:07.598Z,101143.13
2022-12-31T00:36:15.954Z,101148.22
2022-12-31T00:39:30.569Z,101157.56
2022-12-31T00:42:32.540Z,101151.84
2022-12-31T00:45:47.579Z,101153.31
2022-12-31T00:48:56.591Z,101153.16
2022-12-31T00:52:05.647Z,101166.56
2022-12-31T00:55:20.576Z,101163.75
2022-12-31T00:58:22.718Z,101161.69
2022-12-31T01:01:44.706Z,101162.75
2022-12-31T01:04:59.558Z,101169.88
2022-12-31T01:08:02.191Z,101165.66
2022-12-31T01:11:19.593Z,101164.78
2022-12-31T01:14:28.210Z,101176.00
2022-12-31T01:17:43.574Z,101170.69
2022-12-31T01:20:58.575Z,101170.09
2022-12-31T01:24:07.578Z,101163.75
2022-12-31T01:27:16.232Z,101174.38
2022-12-31T01:30:25.574Z,101163.75
2022-12-31T01:33:41.601Z,101175.34
2022-12-31T01:36:50.301Z,101178.34
2022-12-31T01:39:58.585Z,101176.72
2022-12-31T01:43:26.580Z,101175.69
2022-12-31T01:46:44.587Z,101179.53
2022-12-31T01:50:00.449Z,101172.63
2022-12-31T01:53:11.583Z,101180.69
2022-12-31T01:56:22.836Z,101182.31
2022-12-31T01:59:34.592Z,101157.38
2022-12-31T02:02:43.489Z,101175.63
2022-12-31T02:06:01.585Z,101170.62
2022-12-31T02:09:18.576Z,101173.19
2022-12-31T02:12:33.569Z,101162.09
2022-12-31T02:16:09.657Z,101187.97
2022-12-31T02:20:02.571Z,101187.19
2022-12-31T02:23:16.861Z,101177.03
2022-12-31T02:26:50.556Z,101183.50
2022-12-31T02:30:10.543Z,101191.25
2022-12-31T02:33:41.583Z,101186.16
2022-12-31T02:36:52.799Z,101171.63
2022-12-31T02:40:01.567Z,101178.19
2022-12-31T02:43:16.545Z,101184.75
2022-12-31T02:46:44.572Z,101194.69
2022-12-31T02:50:18.551Z,101189.37
2022-12-31T02:53:33.990Z,101192.03
2022-12-31T02:57:23.572Z,101194.69
2022-12-31T03:00:36.427Z,101188.81
2022-12-31T03:03:45.577Z,101190.44
2022-12-31T03:06:54.624Z,101174.28
2022-12-31T03:10:09.570Z,101169.00
2022-12-31T03:13:11.663Z,101154.72
2022-12-31T03:16:26.625Z,101145.94
2022-12-31T03:19:34.852Z,101154.25
2022-12-31T03:22:50.571Z,101181.59
2022-12-31T03:26:07.560Z,101175.25
2022-12-31T03:29:09.616Z,101140.19
2022-12-31T03:32:24.576Z,101173.28
2022-12-31T03:35:27.976Z,101185.72
2022-12-31T03:38:44.760Z,101168.16
2022-12-31T03:41:50.092Z,101166.72
2022-12-31T03:45:04.579Z,101165.47
2022-12-31T03:48:19.559Z,101162.59
2022-12-31T03:51:21.685Z,101159.69
2022-12-31T03:54:36.551Z,101153.97
2022-12-31T03:57:45.453Z,101144.59
2022-12-31T04:00:53.635Z,101139.00
2022-12-31T04:04:08.593Z,101156.84
2022-12-31T04:07:10.663Z,101164.56
2022-12-31T04:10:26.619Z,101163.50
2022-12-31T04:13:35.279Z,101167.00
2022-12-31T04:16:44.624Z,101155.94
2022-12-31T04:20:06.619Z,101158.59
2022-12-31T04:23:08.663Z,101171.84
2022-12-31T04:26:23.558Z,101167.38
2022-12-31T04:29:32.533Z,101168.38
2022-12-31T04:32:41.559Z,101157.34
2022-12-31T04:35:56.608Z,101173.03
2022-12-31T04:39:05.540Z,101187.09
2022-12-31T04:42:20.565Z,101190.56
2022-12-31T04:45:42.565Z,101178.41
2022-12-31T04:48:51.563Z,101204.03
2022-12-31T04:52:06.563Z,101201.19
2022-12-31T04:55:08.715Z,101211.81
2022-12-31T04:58:24.573Z,101212.59
2022-12-31T05:01:33.872Z,101210.59
2022-12-31T05:04:48.544Z,101219.38
2022-12-31T05:07:57.578Z,101224.69
2022-12-31T05:11:06.313Z,101231.62
2022-12-31T05:14:14.587Z,101235.28
2022-12-31T05:17:36.559Z,101234.28
2022-12-31T05:20:46.088Z,101230.81
2022-12-31T05:24:00.570Z,101229.78
2022-12-31T05:27:09.297Z,101246.28
2022-12-31T05:30:18.564Z,101241.56
2022-12-31T05:33:33.596Z,101250.53
2022-12-31T05:36:35.561Z,101241.56
2022-12-31T05:39:50.581Z,101246.87
2022-12-31T05:42:59.254Z,101255.66
2022-12-31T05:46:11.607Z,101272.34
2022-12-31T05:49:20.465Z,101276.66
2022-12-31T05:52:36.987Z,101275.00
2022-12-31T05:55:54.563Z,101263.81
2022-12-31T05:59:09.571Z,101267.06
2022-12-31T06:02:18.261Z,101272.16
2022-12-31T06:05:26.852Z,101269.28
2022-12-31T06:08:41.582Z,101267.44
2022-12-31T06:11:44.209Z,101280.31
2022-12-31T06:14:59.575Z,101263.81
2022-12-31T06:18:14.849Z,101281.97
2022-12-31T06:21:29.569Z,101271.34
2022-12-31T06:24:38.537Z,101277.47
2022-12-31T06:27:47.328Z,101263.38
2022-12-31T06:30:55.586Z,101251.94
2022-12-31T06:34:10.564Z,101267.63
2022-12-31T06:37:25.540Z,101275.59
2022-12-31T06:40:37.551Z,101293.81
2022-12-31T06:43:46.547Z,101282.03
2022-12-31T06:47:01.556Z,101284.84
2022-12-31T06:50:16.547Z,101305.41
2022-12-31T06:53:25.471Z,101306.00
2022-12-31T06:56:40.567Z,101303.19
2022-12-31T06:59:56.566Z,101296.16
2022-12-31T07:04:00.539Z,101296.41
2022-12-31T07:07:33.739Z,101301.94
2022-12-31T07:10:42.541Z,101298.69
2022-12-31T07:14:29.530Z,101301.53
2022-12-31T07:17:34.581Z,101315.41
2022-12-31T07:20:50.550Z,101317.63
2022-12-31T07:23:59.816Z,101318.22
2022-12-31T07:27:40.542Z,101325.16
2022-12-31T07:31:19.644Z,101329.66
2022-12-31T07:35:02.575Z,101327.56
2022-12-31T07:39:05.609Z,101310.41
2022-12-31T07:42:30.566Z,101325.81
2022-12-31T07:45:48.258Z,101323.59
2022-12-31T07:49:04.554Z,101332.97
2022-12-31T07:52:13.791Z,101322.03
2022-12-31T07:55:29.558Z,101340.91
2022-12-31T07:58:44.212Z,101341.28
2022-12-31T08:01:55.632Z,101344.31
2022-12-31T08:05:06.821Z,101338.34
2022-12-31T08:08:50.549Z,101353.62
2022-12-31T08:12:02.351Z,101356.44
2022-12-31T08:15:29.995Z,101357.59
2022-12-31T08:18:45.566Z,101345.31
2022-12-31T08:22:03.157Z,101349.94
2022-12-31T08:25:34.556Z,101336.78
2022-12-31T08:29:12.596Z,101375.28
2022-12-31T08:32:24.845Z,101389.31
2022-12-31T08:35:58.544Z,101393.53
2022-12-31T08:39:27.540Z,101394.03
2022-12-31T08:43:18.648Z,101399.72
2022-12-31T08:46:58.538Z,101412.44
2022-12-31T08:50:13.864Z,101411.16
2022-12-31T08:53:29.525Z,101420.88
2022-12-31T08:57:05.567Z,101421.59
2022-12-31T09:00:19.877Z,101414.69
2022-12-31T09:03:31.538Z,101416.84
2022-12-31T09:07:02.266Z,101424.06
2022-12-31T09:10:30.539Z,101408.38
2022-12-31T09:14:07.541Z,101412.75
2022-12-31T09:17:44.213Z,101431.72
2022-12-31T09:20:53.541Z,101424.22
2022-12-31T09:24:08.999Z,101405.94
2022-12-31T09:27:35.569Z,101413.91
2022-12-31T09:31:33.580Z,101399.34
2022-12-31T09:34:58.606Z,101409.09
2022-12-31T09:38:09.577Z,101399.03
2022-12-31T09:41:35.554Z,101394.75
2022-12-31T09:45:16.486Z,101401.12
2022-12-31T09:48:47.174Z,101383.16
2022-12-31T09:52:20.637Z,101384.56
2022-12-31T09:56:11.543Z,101357.88
2022-12-31T09:59:55.884Z,101353.44
2022-12-31T10:03:20.580Z,101349.16
2022-12-31T10:06:54.579Z,101347.78
2022-12-31T10:10:05.770Z,101343.62
2022-12-31T10:13:33.581Z,101338.63
2022-12-31T10:17:22.533Z,101345.59
2022-12-31T10:21:17.545Z,101340.03
2022-12-31T10:24:45.780Z,101351.81
2022-12-31T10:28:12.614Z,101335.84
2022-12-31T10:31:55.508Z,101359.34
2022-12-31T10:35:13.590Z,101361.00
2022-12-31T10:39:00.543Z,101355.06
2022-12-31T10:42:40.150Z,101358.31
2022-12-31T10:46:30.610Z,101367.34
2022-12-31T10:50:00.539Z,101371.16
2022-12-31T10:53:36.579Z,101364.44
2022-12-31T10:57:50.569Z,101351.47
2022-12-31T11:01:14.472Z,101344.75
2022-12-31T11:04:48.530Z,101359.34
2022-12-31T11:08:02.803Z,101341.28
2022-12-31T11:11:51.535Z,101365.50
2022-12-31T11:15:27.570Z,101340.59
2022-12-31T11:18:51.050Z,101339.00
2022-12-31T11:22:17.531Z,101333.19
2022-12-31T11:26:14.525Z,101324.97
2022-12-31T11:29:54.547Z,101332.72
2022-12-31T11:33:11.278Z,101341.28
2022-12-31T11:36:57.545Z,101338.16
2022-12-31T11:40:12.543Z,101327.66
2022-12-31T11:43:51.523Z,101332.25
2022-12-31T11:47:19.650Z,101338.63
2022-12-31T11:50:34.521Z,101333.88
2022-12-31T11:53:58.535Z,101331.78
2022-12-31T11:57:21.561Z,101326.00
2022-12-31T12:00:32.345Z,101314.19
2022-12-31T12:03:40.558Z,101322.31
2022-12-31T12:06:49.324Z,101321.81
2022-12-31T12:10:01.543Z,101343.69
2022-12-31T12:13:27.540Z,101342.19
2022-12-31T12:16:49.533Z,101340.94
2022-12-31T12:20:09.555Z,101341.25
2022-12-31T12:23:25.667Z,101349.34
2022-12-31T12:26:41.591Z,101345.97
2022-12-31T12:29:50.350Z,101354.53
2022-12-31T12:33:08.513Z,101353.16
2022-12-31T12:36:19.488Z,101347.94
2022-12-31T12:39:30.539Z,101340.53
2022-12-31T12:42:56.546Z,101336.78
2022-12-31T12:46:21.903Z,101336.78
2022-12-31T12:49:45.547Z,101336.75
2022-12-31T12:53:29.523Z,101341.19
2022-12-31T12:57:08.524Z,101327.97
2022-12-31T13:00:27.533Z,101333.88
2022-12-31T13:03:48.656Z,101323.31
2022-12-31T13:07:22.498Z,101324.19
2022-12-31T13:10:57.574Z,101320.81
2022-12-31T13:14:31.139Z,101320.56
2022-12-31T13:18:25.524Z,101325.69
2022-12-31T13:21:48.556Z,101338.87
2022-12-31T13:25:24.623Z,101336.53
2022-12-31T13:28:42.554Z,101339.19
2022-12-31T13:31:45.833Z,101351.47
2022-12-31T13:35:04.518Z,101346.97
2022-12-31T13:39:08.513Z,101352.06
2022-12-31T13:42:39.387Z,101346.72
2022-12-31T13:46:07.529Z,101351.72
2022-12-31T13:49:31.612Z,101355.13
2022-12-31T13:52:46.370Z,101337.38
2022-12-31T13:56:02.510Z,101330.44
2022-12-31T13:59:49.522Z,101325.13
2022-12-31T14:03:27.541Z,101334.63
2022-12-31T14:06:56.489Z,101351.94
2022-12-31T14:10:19.523Z,101359.44
2022-12-31T14:13:46.959Z,101363.22
2022-12-31T14:17:16.529Z,101369.63
2022-12-31T14:20:55.960Z,101367.28
2022-12-31T14:24:21.507Z,101364.16
2022-12-31T14:27:42.524Z,101364.16
2022-12-31T14:31:09.675Z,101371.91
2022-12-31T14:34:42.543Z,101369.78
2022-12-31T14:38:18.621Z,101368.44
2022-12-31T14:41:55.515Z,101373.19
2022-12-31T14:45:17.589Z,101374.50
2022-12-31T14:48:35.552Z,101376.34
2022-12-31T14:51:44.210Z,101377.88
2022-12-31T14:55:03.601Z,101374.94
2022-12-31T14:58:37.509Z,101360.81
2022-12-31T15:01:53.592Z,101360.13
2022-12-31T15:05:33.526Z,101361.97
2022-12-31T15:08:54.379Z,101364.91
2022-12-31T15:12:21.515Z,101365.97
2022-12-31T15:16:18.583Z,101352.63
2022-12-31T15:19:50.892Z,101347.78
2022-12-31T15:23:05.537Z,101341.06
2022-12-31T15:26:28.633Z,101341.06
2022-12-31T15:29:48.494Z,101366.63
2022-12-31T15:33:07.508Z,101381.84
2022-12-31T15:36:28.506Z,101404.56
2022-12-31T15:39:47.528Z,101385.09
2022-12-31T15:43:30.665Z,101384.50
2022-12-31T15:46:49.515Z,101372.78
2022-12-31T15:50:12.424Z,101364.47
2022-12-31T15:53:40.513Z,101382.87
2022-12-31T15:56:52.515Z,101388.22
2022-12-31T16:00:06.056Z,101400.97
2022-12-31T16:03:27.526Z,101398.88
2022-12-31T16:06:50.462Z,101377.78
2022-12-31T16:10:08.548Z,101380.78
2022-12-31T16:13:20.202Z,101375.94
2022-12-31T16:16:38.511Z,101373.75
2022-12-31T16:20:00.538Z,101375.59
2022-12-31T16:23:24.603Z,101385.44
2022-12-31T16:26:40.514Z,101380.81
2022-12-31T16:30:03.499Z,101377.81
2022-12-31T16:33:21.520Z,101383.41
2022-12-31T16:36:36.499Z,101385.69
2022-12-31T16:39:53.256Z,101379.47
2022-12-31T16:43:08.504Z,101375.87
2022-12-31T16:46:14.681Z,101370.91
2022-12-31T16:49:30.498Z,101360.16
2022-12-31T16:52:50.439Z,101366.75
2022-12-31T16:56:15.524Z,101390.03
2022-12-31T16:59:35.851Z,101390.38
2022-12-31T17:02:53.624Z,101402.31
2022-12-31T17:06:14.515Z,101389.69
2022-12-31T17:09:25.527Z,101386.91
2022-12-31T17:12:53.063Z,101386.53
2022-12-31T17:16:11.655Z,101385.03
2022-12-31T17:19:33.798Z,101398.22
2022-12-31T17:22:50.521Z,101400.75
2022-12-31T17:26:18.549Z,101392.09
2022-12-31T17:29:27.363Z,101387.22
2022-12-31T17:32:44.500Z,101391.16
2022-12-31T17:35:53.527Z,101393.81
2022-12-31T17:39:22.669Z,101408.59
2022-12-31T17:42:44.539Z,101412.91
2022-12-31T17:46:01.508Z,101399.91
2022-12-31T17:49:10.573Z,101417.84
2022-12-31T17:52:25.509Z,101420.97
2022-12-31T17:55:34.442Z,101419.09
2022-12-31T17:58:48.529Z,101421.78
2022-12-31T18:02:07.566Z,101424.22
2022-12-31T18:05:18.539Z,101429.75
2022-12-31T18:08:27.567Z,101424.91
2022-12-31T18:11:44.488Z,101419.44
2022-12-31T18:14:59.526Z,101415.38
2022-12-31T18:18:39.504Z,101407.50
2022-12-31T18:21:54.519Z,101407.97
2022-12-31T18:25:03.524Z,101409.91
2022-12-31T18:28:15.528Z,101403.66
2022-12-31T18:31:34.532Z,101415.94
2022-12-31T18:34:36.651Z,101410.06
2022-12-31T18:37:52.501Z,101411.69
2022-12-31T18:41:07.565Z,101414.09
2022-12-31T18:44:17.336Z,101412.94
2022-12-31T18:47:37.431Z,101420.25
2022-12-31T18:50:53.496Z,101426.59
2022-12-31T18:54:10.521Z,101435.75
2022-12-31T18:57:13.663Z,101435.91
2022-12-31T19:00:29.507Z,101435.47
2022-12-31T19:03:44.502Z,101443.09
2022-12-31T19:06:47.674Z,101444.06
2022-12-31T19:10:02.501Z,101438.88
2022-12-31T19:13:11.509Z,101440.28
2022-12-31T19:16:20.444Z,101437.63
2022-12-31T19:19:42.488Z,101440.03
2022-12-31T19:22:51.512Z,101440.87
2022-12-31T19:26:00.485Z,101437.16
2022-12-31T19:29:24.344Z,101442.94
2022-12-31T19:32:32.518Z,101435.28
2022-12-31T19:35:48.497Z,101438.97
2022-12-31T19:39:03.516Z,101433.09
2022-12-31T19:42:12.534Z,101431.53
2022-12-31T19:45:32.490Z,101424.41
2022-12-31T19:48:41.255Z,101441.94
2022-12-31T19:51:56.506Z,101449.94
2022-12-31T19:55:05.795Z,101447.66
2022-12-31T19:58:15.481Z,101434.50
2022-12-31T20:01:25.595Z,101429.19
2022-12-31T20:04:34.499Z,101419.38
2022-12-31T20:07:43.366Z,101415.69
2022-12-31T20:10:59.488Z,101417.44
2022-12-31T20:14:15.507Z,101420.06
2022-12-31T20:17:24.312Z,101421.16
2022-12-31T20:20:39.788Z,101417.78
2022-12-31T20:23:56.503Z,101414.03
2022-12-31T20:26:58.701Z,101410.63
2022-12-31T20:30:14.505Z,101416.84
2022-12-31T20:33:23.494Z,101418.53
2022-12-31T20:36:38.500Z,101425.16
2022-12-31T20:39:47.311Z,101422.72
2022-12-31T20:42:56.488Z,101420.31
2022-12-31T20:46:17.508Z,101420.16
2022-12-31T20:49:52.224Z,101413.66
2022-12-31T20:53:01.495Z,101413.34
2022-12-31T20:56:16.473Z,101429.78
2022-12-31T20:59:25.528Z,101426.94
2022-12-31T21:02:42.432Z,101413.72
2022-12-31T21:06:01.542Z,101419.19
2022-12-31T21:09:12.505Z,101409.81
2022-12-31T21:12:27.504Z,101406.13
2022-12-31T21:15:36.290Z,101411.44
2022-12-31T21:18:45.512Z,101405.09
2022-12-31T21:22:00.486Z,101412.03
2022-12-31T21:25:17.507Z,101415.84
2022-12-31T21:28:26.481Z,101420.50
2022-12-31T21:31:35.262Z,101427.22
2022-12-31T21:35:14.709Z,101433.59
2022-12-31T21:38:19.327Z,101443.59
2022-12-31T21:41:34.844Z,101446.25
2022-12-31T21:44:43.507Z,101456.75
2022-12-31T21:47:52.180Z,101448.91
2022-12-31T21:51:16.567Z,101450.53
2022-12-31T21:54:25.472Z,101458.66
2022-12-31T21:57:51.879Z,101447.72
2022-12-31T22:01:04.567Z,101454.22
2022-12-31T22:04:43.309Z,101461.09
2022-12-31T22:07:48.527Z,101467.81
2022-12-31T22:11:04.501Z,101467.37
2022-12-31T22:14:19.489Z,101469.16
2022-12-31T22:17:28.588Z,101473.44
2022-12-31T22:20:43.925Z,101469.97
2022-12-31T22:24:00.518Z,101458.16
2022-12-31T22:27:29.564Z,101465.09
2022-12-31T22:30:44.597Z,101468.41
2022-12-31T22:34:01.503Z,101471.28
2022-12-31T22:37:46.074Z,101467.81
2022-12-31T22:40:38.485Z,101466.78
2022-12-31T22:44:02.971Z,101460.28
2022-12-31T22:47:12.173Z,101454.37
2022-12-31T22:50:27.502Z,101445.16
2022-12-31T22:53:29.531Z,101439.84
2022-12-31T22:56:44.506Z,101435.78
2022-12-31T22:59:53.245Z,101441.56
2022-12-31T23:03:09.498Z,101434.28
2022-12-31T23:06:26.511Z,101433.34
2022-12-31T23:09:35.277Z,101426.03
2022-12-31T23:12:50.472Z,101425.88
2022-12-31T23:15:59.221Z,101438.91
2022-12-31T23:19:15.456Z,101443.84
2022-12-31T23:22:30.475Z,101426.59
2022-12-31T23:25:57.461Z,101427.47
2022-12-31T23:29:06.248Z,101431.62
2022-12-31T23:32:23.452Z,101425.44
2022-12-31T23:35:32.513Z,101416.34
2022-12-31T23:38:47.463Z,101442.59
2022-12-31T23:41:56.519Z,101446.69
2022-12-31T23:45:12.494Z,101445.16
2022-12-31T23:48:14.515Z,101455.13
2022-12-31T23:51:30.468Z,101460.87
2022-12-31T23:54:39.473Z,101456.16
2022-12-31T23:57:54.466Z,101455.31
